^^
Paulen-Weather Station Historical Data
Daily Summary for February 23, 2022 Units:  Metric    English   Both
Daily Weekly Monthly Yearly Custom
  High: Low: Average:
Temperature: 7 °C 2 °C 5.2 °C
Dew Point: 6 °C 1 °C 3.8 °C
Humidity: 94% 86% 90%
Wind Speed: 58km/h 4km/h 23.5km/h
Wind Gust: 44km/h - -
Wind- - NW
Pressure: 1009.21 hPa 996.17 hPa -
Precipitation: 0.79 mm    
Historical Graphs
 
 
Tabular Data for February 23, 2022
Time Temperature Dew Point Pressure Wind Wind Speed Wind Gust Humidity Rainfall Rate (Hourly) solar
00:04 2 °C 1 °C 1002.27 hPa W 6 km/h 5 km/h 93% 0 mm 0 W/m2
00:09 2 °C 1 °C 1002.34 hPa W 12 km/h 7 km/h 93% 0 mm 0 W/m2
00:14 2 °C 1 °C 1002.44 hPa W 10 km/h 6 km/h 93% 0 mm 0 W/m2
00:19 2 °C 1 °C 1002.47 hPa W 9 km/h 6 km/h 93% 0 mm 0 W/m2
00:24 2 °C 1 °C 1002.57 hPa W 8 km/h 8 km/h 93% 0 mm 0 W/m2
00:29 2 °C 1 °C 1002.61 hPa W 10 km/h 7 km/h 93% 0 mm 0 W/m2
00:34 2 °C 1 °C 1002.71 hPa W 11 km/h 8 km/h 93% 0 mm 0 W/m2
00:39 2 °C 1 °C 1002.78 hPa W 10 km/h 8 km/h 93% 0 mm 0 W/m2
00:44 2 °C 1 °C 1002.78 hPa W 9 km/h 6 km/h 93% 0 mm 0 W/m2
00:49 2 °C 1 °C 1002.81 hPa W 9 km/h 7 km/h 93% 0 mm 0 W/m2
00:54 2 °C 1 °C 1002.98 hPa W 7 km/h 4 km/h 93% 0 mm 0 W/m2
00:59 2 °C 1 °C 1002.98 hPa W 7 km/h 4 km/h 93% 0 mm 0 W/m2
01:04 2 °C 1 °C 1003.12 hPa WSW 7 km/h 3 km/h 93% 0 mm 0 W/m2
01:09 2 °C 1 °C 1003.25 hPa W 9 km/h 5 km/h 93% 0 mm 0 W/m2
01:14 3 °C 2 °C 1003.25 hPa W 9 km/h 5 km/h 93% 0 mm 0 W/m2
01:19 3 °C 2 °C 1003.42 hPa W 8 km/h 7 km/h 93% 0 mm 0 W/m2
01:24 3 °C 2 °C 1003.45 hPa W 6 km/h 3 km/h 93% 0 mm 0 W/m2
01:29 3 °C 2 °C 1003.49 hPa W 8 km/h 6 km/h 93% 0 mm 0 W/m2
01:34 3 °C 2 °C 1003.62 hPa W 13 km/h 10 km/h 92% 0 mm 0 W/m2
01:39 3 °C 2 °C 1003.69 hPa W 16 km/h 10 km/h 92% 0 mm 0 W/m2
01:44 3 °C 2 °C 1003.76 hPa W 12 km/h 9 km/h 91% 0 mm 0 W/m2
01:49 3 °C 1 °C 1003.83 hPa WSW 15 km/h 8 km/h 91% 0 mm 0 W/m2
01:54 3 °C 1 °C 1003.89 hPa W 9 km/h 5 km/h 91% 0 mm 0 W/m2
01:59 3 °C 1 °C 1003.96 hPa WSW 9 km/h 7 km/h 91% 0 mm 0 W/m2
02:04 3 °C 1 °C 1004.06 hPa WSW 6 km/h 3 km/h 91% 0 mm 0 W/m2
02:09 3 °C 1 °C 1004.13 hPa W 4 km/h 2 km/h 91% 0 mm 0 W/m2
02:14 3 °C 1 °C 1004.13 hPa SW 5 km/h 5 km/h 91% 0 mm 0 W/m2
02:19 3 °C 1 °C 1004.06 hPa WSW 5 km/h 3 km/h 91% 0 mm 0 W/m2
02:24 3 °C 1 °C 1004.03 hPa WSW 6 km/h 4 km/h 91% 0 mm 0 W/m2
02:29 3 °C 1 °C 1003.93 hPa W 7 km/h 6 km/h 91% 0 mm 0 W/m2
02:34 3 °C 1 °C 1003.89 hPa W 6 km/h 4 km/h 91% 0 mm 0 W/m2
02:39 3 °C 1 °C 1003.96 hPa WSW 7 km/h 5 km/h 91% 0 mm 0 W/m2
02:44 3 °C 1 °C 1004.03 hPa W 7 km/h 8 km/h 91% 0 mm 0 W/m2
02:49 3 °C 1 °C 1004.37 hPa W 13 km/h 8 km/h 91% 0 mm 0 W/m2
02:54 3 °C 1 °C 1004.4 hPa W 12 km/h 7 km/h 91% 0 mm 0 W/m2
02:59 3 °C 1 °C 1004.44 hPa WNW 12 km/h 11 km/h 91% 0 mm 0 W/m2
03:04 3 °C 2 °C 1004.47 hPa WNW 13 km/h 7 km/h 91% 0 mm 0 W/m2
03:09 3 °C 2 °C 1004.5 hPa W 11 km/h 8 km/h 91% 0 mm 0 W/m2
03:14 3 °C 2 °C 1004.54 hPa WNW 9 km/h 8 km/h 91% 0 mm 0 W/m2
03:19 3 °C 2 °C 1004.57 hPa W 12 km/h 8 km/h 91% 0 mm 0 W/m2
03:24 3 °C 2 °C 1004.61 hPa WNW 11 km/h 7 km/h 91% 0 mm 0 W/m2
03:29 3 °C 2 °C 1004.61 hPa W 9 km/h 7 km/h 91% 0 mm 0 W/m2
03:34 3 °C 2 °C 1004.71 hPa W 12 km/h 9 km/h 91% 0 mm 0 W/m2
03:39 3 °C 2 °C 1004.91 hPa W 15 km/h 9 km/h 91% 0 mm 0 W/m2
03:44 3 °C 2 °C 1004.94 hPa W 10 km/h 6 km/h 91% 0 mm 0 W/m2
03:49 3 °C 2 °C 1004.94 hPa W 10 km/h 8 km/h 91% 0 mm 0 W/m2
03:54 3 °C 2 °C 1004.94 hPa WNW 10 km/h 7 km/h 91% 0 mm 0 W/m2
03:59 3 °C 2 °C 1004.98 hPa WNW 15 km/h 10 km/h 91% 0 mm 0 W/m2
04:04 3 °C 2 °C 1005.05 hPa WNW 12 km/h 9 km/h 90% 0 mm 0 W/m2
04:09 3 °C 2 °C 1005.08 hPa WNW 9 km/h 10 km/h 90% 0 mm 0 W/m2
04:14 3 °C 2 °C 1005.08 hPa W 14 km/h 10 km/h 90% 0 mm 0 W/m2
04:19 3 °C 2 °C 1005.15 hPa WNW 19 km/h 11 km/h 89% 0 mm 0 W/m2
04:24 3 °C 2 °C 1005.22 hPa WNW 18 km/h 13 km/h 89% 0 mm 0 W/m2
04:29 3 °C 2 °C 1005.28 hPa WNW 17 km/h 14 km/h 88% 0 mm 0 W/m2
04:34 4 °C 2 °C 1005.35 hPa WNW 16 km/h 9 km/h 88% 0 mm 0 W/m2
04:39 3 °C 2 °C 1005.42 hPa WNW 14 km/h 11 km/h 88% 0 mm 0 W/m2
04:44 4 °C 2 °C 1005.62 hPa WNW 15 km/h 10 km/h 88% 0 mm 0 W/m2
04:49 4 °C 2 °C 1005.76 hPa WNW 18 km/h 12 km/h 88% 0 mm 0 W/m2
04:54 4 °C 2 °C 1005.99 hPa W 15 km/h 10 km/h 87% 0 mm 0 W/m2
04:59 4 °C 2 °C 1006.03 hPa W 19 km/h 13 km/h 87% 0 mm 0 W/m2
05:04 4 °C 2 °C 1006.1 hPa W 16 km/h 10 km/h 87% 0 mm 0 W/m2
05:09 4 °C 2 °C 1006.06 hPa WNW 12 km/h 8 km/h 87% 0 mm 0 W/m2
05:14 4 °C 2 °C 1006.06 hPa WNW 17 km/h 11 km/h 87% 0 mm 0 W/m2
05:19 4 °C 2 °C 1006.23 hPa WNW 15 km/h 11 km/h 87% 0 mm 0 W/m2
05:24 4 °C 2 °C 1006.23 hPa W 13 km/h 9 km/h 87% 0 mm 0 W/m2
05:29 4 °C 2 °C 1006.27 hPa W 16 km/h 9 km/h 87% 0 mm 0 W/m2
05:34 3 °C 2 °C 1006.33 hPa W 15 km/h 10 km/h 87% 0 mm 0 W/m2
05:39 4 °C 2 °C 1006.47 hPa W 15 km/h 9 km/h 87% 0 mm 0 W/m2
05:44 3 °C 2 °C 1006.57 hPa W 17 km/h 13 km/h 87% 0 mm 0 W/m2
05:49 3 °C 2 °C 1006.57 hPa W 17 km/h 11 km/h 87% 0 mm 0 W/m2
05:54 3 °C 2 °C 1006.67 hPa W 17 km/h 11 km/h 87% 0 mm 0 W/m2
05:59 3 °C 2 °C 1006.91 hPa W 13 km/h 6 km/h 87% 0 mm 0 W/m2
06:04 3 °C 2 °C 1007.04 hPa W 12 km/h 10 km/h 87% 0 mm 0 W/m2
06:09 3 °C 1 °C 1007.08 hPa WNW 16 km/h 10 km/h 87% 0 mm 0 W/m2
06:14 3 °C 1 °C 1007.25 hPa W 9 km/h 5 km/h 87% 0 mm 0 W/m2
06:19 3 °C 1 °C 1007.35 hPa WNW 9 km/h 7 km/h 87% 0 mm 0 W/m2
06:24 3 °C 2 °C 1007.35 hPa WNW 17 km/h 10 km/h 87% 0 mm 0 W/m2
06:29 4 °C 2 °C 1007.38 hPa WNW 18 km/h 13 km/h 87% 0 mm 0 W/m2
06:34 4 °C 2 °C 1007.55 hPa W 14 km/h 10 km/h 87% 0 mm 0 W/m2
06:39 4 °C 2 °C 1007.69 hPa WNW 13 km/h 9 km/h 87% 0 mm 0 W/m2
06:44 4 °C 2 °C 1007.79 hPa WNW 12 km/h 10 km/h 87% 0 mm 0 W/m2
06:49 3 °C 2 °C 1007.79 hPa W 10 km/h 7 km/h 87% 0 mm 0 W/m2
06:54 3 °C 2 °C 1007.76 hPa WNW 10 km/h 8 km/h 88% 0 mm 0 W/m2
06:59 3 °C 2 °C 1007.82 hPa W 8 km/h 5 km/h 88% 0 mm 0 W/m2
07:04 3 °C 2 °C 1007.89 hPa WSW 7 km/h 5 km/h 88% 0 mm 0 W/m2
07:09 3 °C 2 °C 1007.99 hPa WSW 7 km/h 5 km/h 89% 0 mm 0 W/m2
07:14 3 °C 2 °C 1008.16 hPa WSW 10 km/h 5 km/h 89% 0 mm 0 W/m2
07:19 3 °C 2 °C 1008.2 hPa WSW 4 km/h 3 km/h 89% 0 mm 0 W/m2
07:24 3 °C 2 °C 1008.2 hPa W 7 km/h 4 km/h 89% 0 mm 0 W/m2
07:29 3 °C 2 °C 1008.26 hPa WSW 6 km/h 3 km/h 89% 0 mm 0 W/m2
07:34 3 °C 2 °C 1008.36 hPa WSW 6 km/h 3 km/h 89% 0 mm 5 W/m2
07:39 3 °C 2 °C 1008.47 hPa W 8 km/h 6 km/h 90% 0 mm 5 W/m2
07:44 3 °C 2 °C 1008.5 hPa WSW 8 km/h 6 km/h 90% 0 mm 7 W/m2
07:49 3 °C 2 °C 1008.57 hPa W 9 km/h 5 km/h 90% 0 mm 11 W/m2
07:54 3 °C 2 °C 1008.67 hPa W 14 km/h 7 km/h 90% 0 mm 18 W/m2
07:59 3 °C 2 °C 1008.67 hPa W 12 km/h 7 km/h 90% 0 mm 25 W/m2
08:04 3 °C 2 °C 1008.67 hPa W 9 km/h 5 km/h 90% 0 mm 30 W/m2
08:09 3 °C 2 °C 1008.74 hPa W 12 km/h 7 km/h 91% 0 mm 40 W/m2
08:14 4 °C 2 °C 1008.81 hPa W 8 km/h 7 km/h 91% 0 mm 46 W/m2
08:19 4 °C 2 °C 1008.74 hPa W 12 km/h 7 km/h 91% 0 mm 53 W/m2
08:24 4 °C 3 °C 1008.84 hPa WNW 12 km/h 9 km/h 91% 0 mm 58 W/m2
08:29 4 °C 2 °C 1008.91 hPa WNW 11 km/h 7 km/h 90% 0 mm 60 W/m2
08:34 4 °C 3 °C 1008.97 hPa WNW 16 km/h 10 km/h 90% 0 mm 70 W/m2
08:39 4 °C 3 °C 1009.04 hPa W 12 km/h 9 km/h 90% 0 mm 76 W/m2
08:44 4 °C 3 °C 1009.08 hPa W 12 km/h 7 km/h 89% 0 mm 81 W/m2
08:49 4 °C 3 °C 1009.08 hPa WNW 9 km/h 6 km/h 89% 0 mm 86 W/m2
08:54 5 °C 3 °C 1009.14 hPa WSW 8 km/h 7 km/h 89% 0 mm 90 W/m2
08:59 5 °C 3 °C 1009.18 hPa WNW 7 km/h 4 km/h 89% 0 mm 54 W/m2
09:04 5 °C 3 °C 1009.14 hPa W 8 km/h 7 km/h 89% 0 mm 111 W/m2
09:09 5 °C 3 °C 1009.11 hPa W 8 km/h 6 km/h 89% 0 mm 121 W/m2
09:14 5 °C 3 °C 1009.08 hPa W 10 km/h 8 km/h 89% 0 mm 134 W/m2
09:19 5 °C 3 °C 1009.14 hPa WNW 13 km/h 8 km/h 89% 0 mm 142 W/m2
09:24 5 °C 3 °C 1009.14 hPa NW 7 km/h 5 km/h 88% 0 mm 148 W/m2
09:29 5 °C 4 °C 1009.18 hPa W 7 km/h 5 km/h 88% 0 mm 160 W/m2
09:34 6 °C 4 °C 1009.21 hPa WNW 11 km/h 9 km/h 87% 0 mm 169 W/m2
09:39 6 °C 4 °C 1009.21 hPa W 11 km/h 7 km/h 87% 0 mm 178 W/m2
09:44 6 °C 4 °C 1009.18 hPa W 10 km/h 7 km/h 87% 0 mm 188 W/m2
09:49 6 °C 4 °C 1009.14 hPa WNW 14 km/h 10 km/h 87% 0 mm 197 W/m2
09:54 6 °C 4 °C 1009.14 hPa WNW 12 km/h 6 km/h 87% 0 mm 204 W/m2
09:59 6 °C 4 °C 1009.08 hPa W 10 km/h 8 km/h 87% 0 mm 221 W/m2
10:04 6 °C 4 °C 1009.08 hPa WNW 17 km/h 11 km/h 87% 0 mm 237 W/m2
10:09 6 °C 4 °C 1009.11 hPa WNW 12 km/h 11 km/h 87% 0 mm 221 W/m2
10:14 6 °C 4 °C 1009.04 hPa WNW 15 km/h 9 km/h 87% 0 mm 257 W/m2
10:19 6 °C 4 °C 1009.08 hPa W 13 km/h 9 km/h 87% 0 mm 243 W/m2
10:24 7 °C 5 °C 1009.08 hPa WNW 18 km/h 11 km/h 87% 0 mm 250 W/m2
10:29 7 °C 5 °C 1009.01 hPa W 18 km/h 13 km/h 86% 0 mm 257 W/m2
10:34 7 °C 5 °C 1008.91 hPa WNW 13 km/h 9 km/h 86% 0 mm 255 W/m2
10:39 7 °C 5 °C 1008.97 hPa WNW 15 km/h 12 km/h 86% 0 mm 320 W/m2
10:44 7 °C 5 °C 1008.97 hPa NW 17 km/h 13 km/h 86% 0 mm 404 W/m2
10:49 7 °C 5 °C 1008.87 hPa NW 19 km/h 14 km/h 86% 0 mm 313 W/m2
10:54 7 °C 5 °C 1008.87 hPa WNW 21 km/h 15 km/h 87% 0 mm 146 W/m2
10:59 7 °C 5 °C 1008.84 hPa WNW 24 km/h 16 km/h 88% 0 mm 121 W/m2
11:04 6 °C 5 °C 1008.81 hPa WNW 24 km/h 12 km/h 88% 0 mm 116 W/m2
11:09 6 °C 5 °C 1008.81 hPa WNW 17 km/h 12 km/h 89% 0 mm 107 W/m2
11:14 6 °C 5 °C 1008.81 hPa NW 18 km/h 15 km/h 89% 0 mm 107 W/m2
11:19 6 °C 5 °C 1008.81 hPa WNW 24 km/h 15 km/h 89% 0 mm 156 W/m2
11:24 6 °C 5 °C 1008.81 hPa NW 17 km/h 12 km/h 90% 0 mm 156 W/m2
11:29 6 °C 5 °C 1008.74 hPa WNW 20 km/h 13 km/h 90% 0 mm 176 W/m2
11:34 7 °C 5 °C 1008.64 hPa WNW 16 km/h 12 km/h 90% 0 mm 376 W/m2
11:39 7 °C 5 °C 1008.5 hPa WNW 16 km/h 10 km/h 90% 0 mm 323 W/m2
11:44 7 °C 5 °C 1008.4 hPa WNW 18 km/h 13 km/h 89% 0 mm 329 W/m2
11:49 7 °C 5 °C 1008.36 hPa WNW 16 km/h 10 km/h 89% 0 mm 352 W/m2
11:54 7 °C 5 °C 1008.43 hPa NW 17 km/h 13 km/h 88% 0 mm 167 W/m2
11:59 7 °C 5 °C 1008.43 hPa NW 23 km/h 19 km/h 88% 0 mm 148 W/m2
12:04 7 °C 5 °C 1008.43 hPa NW 24 km/h 15 km/h 89% 0 mm 130 W/m2
12:09 7 °C 5 °C 1008.47 hPa NW 22 km/h 16 km/h 89% 0 mm 127 W/m2
12:14 7 °C 5 °C 1008.36 hPa NW 25 km/h 19 km/h 88% 0 mm 127 W/m2
12:19 7 °C 5 °C 1008.36 hPa WNW 27 km/h 21 km/h 89% 0 mm 183 W/m2
12:24 7 °C 5 °C 1008.33 hPa WNW 22 km/h 16 km/h 89% 0 mm 230 W/m2
12:29 7 °C 5 °C 1008.16 hPa WNW 26 km/h 21 km/h 89% 0 mm 274 W/m2
12:34 7 °C 5 °C 1008.09 hPa WNW 26 km/h 17 km/h 89% 0 mm 352 W/m2
12:39 7 °C 5 °C 1008.09 hPa NW 22 km/h 16 km/h 89% 0 mm 352 W/m2
12:44 7 °C 5 °C 1008.06 hPa NW 23 km/h 19 km/h 89% 0 mm 178 W/m2
12:49 7 °C 5 °C 1007.99 hPa NW 25 km/h 18 km/h 89% 0 mm 193 W/m2
12:54 7 °C 5 °C 1007.96 hPa WNW 23 km/h 17 km/h 90% 0 mm 195 W/m2
12:59 7 °C 5 °C 1007.96 hPa NW 25 km/h 16 km/h 90% 0 mm 204 W/m2
13:04 7 °C 5 °C 1007.82 hPa NW 27 km/h 18 km/h 90% 0 mm 183 W/m2
13:09 7 °C 5 °C 1007.86 hPa WNW 23 km/h 17 km/h 90% 0 mm 156 W/m2
13:14 7 °C 5 °C 1007.89 hPa WNW 20 km/h 16 km/h 90% 0 mm 162 W/m2
13:19 7 °C 5 °C 1007.86 hPa WNW 22 km/h 18 km/h 90% 0 mm 265 W/m2
13:24 7 °C 5 °C 1007.82 hPa NW 22 km/h 12 km/h 90% 0 mm 364 W/m2
13:29 7 °C 5 °C 1007.72 hPa W 19 km/h 16 km/h 90% 0 mm 309 W/m2
13:34 7 °C 5 °C 1007.65 hPa WNW 19 km/h 17 km/h 89% 0 mm 320 W/m2
13:39 7 °C 5 °C 1007.52 hPa NW 23 km/h 14 km/h 89% 0 mm 295 W/m2
13:44 7 °C 5 °C 1007.48 hPa WNW 25 km/h 24 km/h 89% 0 mm 301 W/m2
13:49 7 °C 5 °C 1007.45 hPa NW 21 km/h 20 km/h 89% 0 mm 301 W/m2
13:54 7 °C 5 °C 1007.45 hPa NNW 28 km/h 23 km/h 89% 0 mm 255 W/m2
13:59 7 °C 5 °C 1007.45 hPa NW 23 km/h 21 km/h 90% 0 mm 288 W/m2
14:04 7 °C 5 °C 1007.28 hPa NW 25 km/h 20 km/h 89% 0 mm 243 W/m2
14:09 7 °C 5 °C 1007.15 hPa WNW 26 km/h 21 km/h 89% 0 mm 253 W/m2
14:14 7 °C 5 °C 1007.08 hPa WNW 25 km/h 19 km/h 90% 0 mm 237 W/m2
14:19 7 °C 5 °C 1007.01 hPa NNW 23 km/h 17 km/h 90% 0 mm 211 W/m2
14:24 7 °C 5 °C 1006.94 hPa NW 27 km/h 21 km/h 89% 0 mm 185 W/m2
14:29 7 °C 5 °C 1006.87 hPa WNW 28 km/h 18 km/h 90% 0 mm 199 W/m2
14:34 7 °C 5 °C 1006.77 hPa NNW 30 km/h 26 km/h 90% 0 mm 185 W/m2
14:39 7 °C 5 °C 1006.71 hPa NW 34 km/h 28 km/h 90% 0 mm 197 W/m2
14:44 7 °C 5 °C 1006.67 hPa NNW 24 km/h 23 km/h 90% 0 mm 213 W/m2
14:49 7 °C 5 °C 1006.57 hPa NNW 29 km/h 26 km/h 90% 0 mm 206 W/m2
14:54 7 °C 5 °C 1006.54 hPa NNW 30 km/h 23 km/h 90% 0 mm 179 W/m2
14:59 7 °C 5 °C 1006.57 hPa NNW 33 km/h 24 km/h 90% 0 mm 179 W/m2
15:04 6 °C 5 °C 1006.5 hPa NNW 34 km/h 25 km/h 90% 0 mm 137 W/m2
15:09 6 °C 5 °C 1006.47 hPa NNW 33 km/h 25 km/h 90% 0 mm 123 W/m2
15:14 6 °C 5 °C 1006.37 hPa NNW 35 km/h 24 km/h 91% 0 mm 130 W/m2
15:19 6 °C 5 °C 1006.33 hPa NNW 32 km/h 25 km/h 91% 0 mm 128 W/m2
15:24 6 °C 5 °C 1006.3 hPa NNW 32 km/h 25 km/h 91% 0 mm 107 W/m2
15:29 6 °C 5 °C 1006.2 hPa NNW 31 km/h 25 km/h 91% 0 mm 84 W/m2
15:34 6 °C 5 °C 1006.1 hPa NNW 32 km/h 25 km/h 91% 0 mm 84 W/m2
15:39 6 °C 5 °C 1006.1 hPa NW 31 km/h 23 km/h 91% 0 mm 65 W/m2
15:44 6 °C 5 °C 1006.06 hPa NNW 27 km/h 22 km/h 91% 0 mm 74 W/m2
15:49 6 °C 5 °C 1005.93 hPa NNW 24 km/h 21 km/h 91% 0 mm 62 W/m2
15:54 6 °C 5 °C 1005.86 hPa NNW 28 km/h 22 km/h 92% 0 mm 62 W/m2
15:59 6 °C 5 °C 1005.76 hPa NNW 31 km/h 24 km/h 92% 0 mm 53 W/m2
16:04 6 °C 5 °C 1005.79 hPa N 28 km/h 22 km/h 92% 0 mm 44 W/m2
16:09 6 °C 5 °C 1005.79 hPa NW 30 km/h 22 km/h 92% 0 mm 40 W/m2
16:14 6 °C 5 °C 1005.76 hPa NNW 30 km/h 24 km/h 92% 0 mm 46 W/m2
16:19 6 °C 5 °C 1005.66 hPa NNW 29 km/h 22 km/h 92% 0 mm 39 W/m2
16:24 6 °C 5 °C 1005.55 hPa N 32 km/h 22 km/h 92% 0 mm 40 W/m2
16:29 6 °C 5 °C 1005.45 hPa N 35 km/h 29 km/h 91% 0 mm 40 W/m2
16:34 6 °C 5 °C 1005.38 hPa NNW 28 km/h 24 km/h 91% 0 mm 39 W/m2
16:39 6 °C 5 °C 1005.35 hPa NNW 27 km/h 24 km/h 91% 0 mm 30 W/m2
16:44 6 °C 5 °C 1005.32 hPa NNW 31 km/h 26 km/h 91% 0 mm 30 W/m2
16:49 6 °C 5 °C 1005.22 hPa WNW 32 km/h 24 km/h 91% 0 mm 30 W/m2
16:54 6 °C 5 °C 1005.15 hPa NNW 31 km/h 22 km/h 91% 0 mm 23 W/m2
16:59 6 °C 5 °C 1005.11 hPa N 32 km/h 23 km/h 92% 0 mm 19 W/m2
17:04 6 °C 5 °C 1005.05 hPa NNW 32 km/h 25 km/h 91% 0 mm 19 W/m2
17:09 6 °C 5 °C 1004.94 hPa NNW 36 km/h 29 km/h 91% 0 mm 16 W/m2
17:14 6 °C 5 °C 1004.98 hPa N 29 km/h 24 km/h 91% 0 mm 14 W/m2
17:19 6 °C 5 °C 1004.91 hPa NNW 32 km/h 24 km/h 91% 0 mm 9 W/m2
17:24 6 °C 5 °C 1004.91 hPa NW 33 km/h 27 km/h 91% 0 mm 7 W/m2
17:29 6 °C 5 °C 1004.74 hPa WSW 32 km/h 27 km/h 91% 0 mm 7 W/m2
17:34 6 °C 5 °C 1004.61 hPa NNW 30 km/h 24 km/h 91% 0 mm 5 W/m2
17:39 6 °C 5 °C 1004.54 hPa N 34 km/h 28 km/h 91% 0 mm 0 W/m2
17:44 6 °C 5 °C 1004.44 hPa N 32 km/h 28 km/h 91% 0 mm 0 W/m2
17:49 6 °C 5 °C 1004.34 hPa N 31 km/h 22 km/h 91% 0 mm 0 W/m2
17:54 6 °C 5 °C 1004.27 hPa N 33 km/h 28 km/h 91% 0 mm 0 W/m2
17:59 6 °C 5 °C 1004.03 hPa N 33 km/h 25 km/h 91% 0 mm 0 W/m2
18:04 6 °C 5 °C 1004 hPa N 37 km/h 29 km/h 91% 0 mm 0 W/m2
18:09 6 °C 5 °C 1003.93 hPa NNW 36 km/h 28 km/h 91% 0 mm 0 W/m2
18:14 6 °C 5 °C 1003.93 hPa N 36 km/h 30 km/h 91% 0 mm 0 W/m2
18:19 6 °C 5 °C 1003.86 hPa NW 36 km/h 27 km/h 91% 0 mm 0 W/m2
18:24 6 °C 5 °C 1003.79 hPa NNW 36 km/h 27 km/h 91% 0 mm 0 W/m2
18:29 6 °C 5 °C 1003.73 hPa NNW 31 km/h 24 km/h 91% 0 mm 0 W/m2
18:34 6 °C 5 °C 1003.69 hPa N 30 km/h 24 km/h 91% 0 mm 0 W/m2
18:39 6 °C 5 °C 1003.49 hPa NNW 35 km/h 25 km/h 91% 0 mm 0 W/m2
18:44 6 °C 5 °C 1003.39 hPa NNW 36 km/h 28 km/h 91% 0 mm 0 W/m2
18:49 6 °C 5 °C 1003.39 hPa NW 32 km/h 24 km/h 91% 0 mm 0 W/m2
18:54 6 °C 5 °C 1003.32 hPa NW 28 km/h 22 km/h 91% 0 mm 0 W/m2
18:59 6 °C 5 °C 1003.15 hPa NW 30 km/h 25 km/h 91% 0 mm 0 W/m2
19:04 6 °C 5 °C 1003.01 hPa NNW 27 km/h 21 km/h 91% 0 mm 0 W/m2
19:09 6 °C 5 °C 1002.95 hPa NNW 31 km/h 25 km/h 91% 0 mm 0 W/m2
19:14 6 °C 5 °C 1002.85 hPa NW 34 km/h 24 km/h 91% 0 mm 0 W/m2
19:19 6 °C 5 °C 1002.68 hPa NNW 32 km/h 27 km/h 91% 0 mm 0 W/m2
19:24 6 °C 5 °C 1002.54 hPa NNW 36 km/h 30 km/h 91% 0 mm 0 W/m2
19:29 6 °C 5 °C 1002.51 hPa N 45 km/h 34 km/h 91% 0 mm 0 W/m2
19:34 6 °C 5 °C 1002.37 hPa N 37 km/h 33 km/h 91% 0 mm 0 W/m2
19:39 6 °C 5 °C 1002.2 hPa NNW 41 km/h 32 km/h 91% 0 mm 0 W/m2
19:44 6 °C 5 °C 1002.17 hPa NNW 40 km/h 30 km/h 91% 0 mm 0 W/m2
19:49 6 °C 5 °C 1002 hPa N 32 km/h 23 km/h 91% 0 mm 0 W/m2
19:54 6 °C 5 °C 1001.9 hPa NNW 37 km/h 29 km/h 91% 0 mm 0 W/m2
19:59 6 °C 5 °C 1001.83 hPa N 38 km/h 28 km/h 91% 0 mm 0 W/m2
20:04 6 °C 5 °C 1001.66 hPa N 37 km/h 29 km/h 91% 0 mm 0 W/m2
20:09 6 °C 5 °C 1001.59 hPa NNW 40 km/h 29 km/h 91% 0 mm 0 W/m2
20:14 6 °C 5 °C 1001.42 hPa N 37 km/h 31 km/h 91% 0 mm 0 W/m2
20:19 6 °C 5 °C 1001.36 hPa N 44 km/h 37 km/h 91% 0 mm 0 W/m2
20:24 6 °C 5 °C 1001.22 hPa N 40 km/h 32 km/h 91% 0 mm 0 W/m2
20:29 6 °C 5 °C 1001.22 hPa N 42 km/h 32 km/h 91% 0 mm 0 W/m2
20:34 6 °C 5 °C 1001.15 hPa NNW 46 km/h 33 km/h 91% 0 mm 0 W/m2
20:39 6 °C 5 °C 1000.95 hPa N 45 km/h 35 km/h 91% 0 mm 0 W/m2
20:44 6 °C 5 °C 1000.78 hPa N 43 km/h 33 km/h 91% 0 mm 0 W/m2
20:49 6 °C 5 °C 1000.71 hPa NNW 43 km/h 31 km/h 91% 0 mm 0 W/m2
20:54 7 °C 5 °C 1000.68 hPa NNW 43 km/h 37 km/h 91% 0 mm 0 W/m2
20:59 7 °C 5 °C 1000.27 hPa N 42 km/h 37 km/h 91% 0 mm 0 W/m2
21:04 7 °C 5 °C 1000.24 hPa N 43 km/h 36 km/h 91% 0 mm 0 W/m2
21:09 7 °C 5 °C 1000.03 hPa NNW 42 km/h 35 km/h 91% 0 mm 0 W/m2
21:14 7 °C 5 °C 999.87 hPa NE 43 km/h 31 km/h 91% 0 mm 0 W/m2
21:19 7 °C 5 °C 999.83 hPa N 45 km/h 38 km/h 91% 0 mm 0 W/m2
21:24 7 °C 5 °C 999.63 hPa N 41 km/h 36 km/h 91% 0 mm 0 W/m2
21:29 7 °C 5 °C 999.59 hPa N 46 km/h 36 km/h 91% 0 mm 0 W/m2
21:34 7 °C 5 °C 999.53 hPa N 47 km/h 36 km/h 91% 0 mm 0 W/m2
21:39 7 °C 5 °C 999.36 hPa N 48 km/h 37 km/h 91% 0 mm 0 W/m2
21:44 7 °C 5 °C 999.05 hPa N 42 km/h 33 km/h 92% 0 mm 0 W/m2
21:49 7 °C 5 °C 998.92 hPa N 50 km/h 35 km/h 93% 0 mm 0 W/m2
21:54 7 °C 6 °C 998.85 hPa N 46 km/h 37 km/h 93% 0 mm 0 W/m2
21:59 7 °C 6 °C 998.71 hPa N 42 km/h 33 km/h 93% 0 mm 0 W/m2
22:04 7 °C 5 °C 998.61 hPa N 44 km/h 37 km/h 93% 0.2 mm 0 W/m2
22:09 6 °C 6 °C 998.38 hPa N 45 km/h 34 km/h 93% 0.2 mm 0 W/m2
22:14 6 °C 6 °C 998.38 hPa N 50 km/h 35 km/h 94% 0.2 mm 0 W/m2
22:19 6 °C 6 °C 998.21 hPa N 46 km/h 36 km/h 94% 0.2 mm 0 W/m2
22:24 6 °C 6 °C 998.17 hPa N 43 km/h 32 km/h 94% 0.2 mm 0 W/m2
22:29 6 °C 6 °C 998.1 hPa N 45 km/h 33 km/h 94% 0.2 mm 0 W/m2
22:34 7 °C 6 °C 998.14 hPa N 45 km/h 36 km/h 94% 0.2 mm 0 W/m2
22:39 7 °C 6 °C 997.83 hPa NNW 44 km/h 33 km/h 93% 0.2 mm 0 W/m2
22:44 7 °C 6 °C 997.7 hPa N 41 km/h 30 km/h 93% 0.2 mm 0 W/m2
22:49 7 °C 6 °C 997.56 hPa NNW 46 km/h 38 km/h 93% 0.2 mm 0 W/m2
22:54 7 °C 6 °C 997.6 hPa N 50 km/h 38 km/h 93% 0.41 mm 0 W/m2
22:59 7 °C 6 °C 997.56 hPa N 48 km/h 37 km/h 93% 0.41 mm 0 W/m2
23:04 7 °C 6 °C 997.53 hPa N 53 km/h 36 km/h 92% 0.41 mm 0 W/m2
23:09 7 °C 6 °C 997.43 hPa N 46 km/h 32 km/h 93% 0.2 mm 0 W/m2
23:14 7 °C 6 °C 997.22 hPa N 48 km/h 39 km/h 92% 0.2 mm 0 W/m2
23:19 7 °C 6 °C 997.05 hPa NNW 50 km/h 35 km/h 92% 0.2 mm 0 W/m2
23:24 7 °C 6 °C 996.99 hPa N 49 km/h 34 km/h 92% 0.2 mm 0 W/m2
23:29 7 °C 6 °C 996.89 hPa N 49 km/h 37 km/h 93% 0.41 mm 0 W/m2
23:34 7 °C 6 °C 996.65 hPa N 43 km/h 34 km/h 93% 0.41 mm 0 W/m2
23:39 7 °C 6 °C 996.55 hPa N 50 km/h 44 km/h 94% 0.41 mm 0 W/m2
23:44 7 °C 6 °C 996.51 hPa N 52 km/h 39 km/h 93% 0.41 mm 0 W/m2
23:49 7 °C 6 °C 996.21 hPa N 49 km/h 41 km/h 93% 0.41 mm 0 W/m2
23:54 7 °C 6 °C 996.17 hPa N 58 km/h 44 km/h 93% 0.41 mm 0 W/m2
23:59 7 °C 6 °C 996.21 hPa NNW 43 km/h 33 km/h 93% 0.41 mm 0 W/m2
Compliments of Weather Underground - 2 mb